Time;durP1;ratioP1;P1;durP2;ratioP2;P2;SDS_P1;SDS_P2;PMS_P1;PMS_P2;Temp;Humidity;BMP_temperature;BMP_pressure;BME280_temperature;BME280_humidity;BME280_pressure;Samples;Min_cycle;Max_cycle;Signal;HPM_P1;HPM_P2
2021/05/18 00:02:21;;;;;;;6.53;5.35;;;;;;;16.99;89.85;99614.66;5032283;28;20025;-72
2021/05/18 00:04:47;;;;;;;7.15;5.47;;;;;;;17.05;89.79;99605.97;5030563;28;20029;-70
2021/05/18 00:07:19;;;;;;;7.45;5.00;;;;;;;17.06;88.71;99613.78;5037754;28;20384;-70
2021/05/18 00:12:31;;;;;;;8.07;5.20;;;;;;;16.82;89.70;99604.25;5051546;28;20104;-71
2021/05/18 00:14:57;;;;;;;6.93;5.20;;;;;;;16.85;89.91;99614.69;5049043;28;20057;-71
2021/05/18 00:17:23;;;;;;;8.00;5.45;;;;;;;16.82;89.76;99612.06;5054137;28;20085;-69
2021/05/18 00:19:49;;;;;;;9.55;5.60;;;;;;;16.91;89.93;99609.50;5061315;28;20055;-70
2021/05/18 00:22:14;;;;;;;7.30;5.63;;;;;;;17.12;89.34;99623.31;5051464;28;20029;-69
2021/05/18 00:24:40;;;;;;;9.07;5.25;;;;;;;17.16;89.33;99593.75;5053248;28;20143;-72
2021/05/18 00:27:05;;;;;;;6.85;4.80;;;;;;;17.28;88.87;99557.19;5066017;28;20489;-72
2021/05/18 00:29:32;;;;;;;11.48;4.60;;;;;;;17.40;88.12;99558.84;5062683;28;20021;-70
2021/05/18 00:31:58;;;;;;;13.27;4.22;;;;;;;17.41;87.88;99562.34;5067766;28;20024;-72
2021/05/18 00:34:24;;;;;;;4.90;3.25;;;;;;;17.21;87.48;99558.09;5065937;28;20025;-73
2021/05/18 00:36:49;;;;;;;6.50;3.80;;;;;;;16.93;89.00;99589.47;5065356;28;20035;-69
2021/05/18 00:39:17;;;;;;;5.18;4.35;;;;;;;16.77;90.29;99577.34;5063881;28;20041;-71
2021/05/18 00:41:43;;;;;;;9.20;5.88;;;;;;;16.65;92.21;99573.88;5068444;28;20021;-73
2021/05/18 00:44:09;;;;;;;6.72;5.45;;;;;;;16.31;94.45;99579.16;5068026;28;20593;-70
2021/05/18 00:46:34;;;;;;;8.93;5.78;;;;;;;15.40;96.42;99468.94;5025483;28;20109;-72
2021/05/18 00:49:00;;;;;;;8.98;5.60;;;;;;;15.92;97.27;99559.19;5047065;28;20029;-68
2021/05/18 00:51:26;;;;;;;11.80;5.97;;;;;;;16.09;97.36;99574.84;5047368;28;20479;-70
2021/05/18 00:53:53;;;;;;;7.72;5.80;;;;;;;16.46;96.10;99572.19;5051004;28;20493;-71
2021/05/18 00:58:25;;;;;;;10.93;5.05;;;;;;;16.62;94.71;99563.50;5051101;28;20029;-71
2021/05/18 00:59:08;;;;;;;8.35;4.90;;;;;;;16.77;93.10;99553.88;5051001;28;20021;-69
2021/05/18 01:01:34;;;;;;;6.50;4.47;;;;;;;16.92;92.01;99546.06;5032259;28;20032;-71
2021/05/18 01:04:00;;;;;;;8.73;4.53;;;;;;;17.12;91.23;99576.38;5051098;28;20020;-70
2021/05/18 01:06:28;;;;;;;5.97;4.10;;;;;;;16.80;90.34;99514.78;5051212;28;20041;-71
2021/05/18 01:08:59;;;;;;;9.13;4.38;;;;;;;17.19;89.89;99575.47;5051235;28;20028;-71
2021/05/18 01:11:29;;;;;;;8.75;4.53;;;;;;;17.20;89.29;99563.31;5051091;28;20025;-74
2021/05/18 01:14:00;;;;;;;;;;;;;;;17.32;88.94;99578.91;5051064;28;20028;-70
2021/05/18 01:16:28;;;;;;;6.35;4.80;;;;;;;17.16;88.67;99533.78;5051432;28;20294;-71
2021/05/18 01:18:53;;;;;;;7.70;5.32;;;;;;;17.42;89.22;99564.03;5033241;28;20017;-71
2021/05/18 01:21:19;;;;;;;5.93;4.75;;;;;;;17.38;89.04;99551.91;5050934;28;20035;-70
2021/05/18 01:23:45;;;;;;;8.43;5.07;;;;;;;17.42;89.19;99564.94;5050950;28;20372;-71
2021/05/18 01:26:13;;;;;;;8.93;5.55;;;;;;;16.94;90.46;99564.28;5050928;28;20029;-70
2021/05/18 01:28:40;;;;;;;7.60;5.50;;;;;;;16.32;93.98;99560.06;5032931;28;20029;-70
2021/05/18 01:31:06;;;;;;;8.85;5.95;;;;;;;16.28;95.82;99563.53;5051053;28;20087;-70
2021/05/18 01:33:32;;;;;;;9.50;5.60;;;;;;;16.48;94.45;99547.84;5051255;28;20382;-70
2021/05/18 01:35:59;;;;;;;9.10;4.78;;;;;;;16.74;93.42;99565.19;5051014;28;20063;-71
2021/05/18 01:43:59;;;;;;;8.85;4.40;;;;;;;16.99;91.52;99619.88;4931637;29;20119;-70
2021/05/18 01:46:26;;;;;;;6.32;4.55;;;;;;;17.06;90.88;99644.19;4931412;29;20036;-71
2021/05/18 01:49:01;;;;;;;7.25;4.95;;;;;;;16.96;91.47;99645.97;4931536;29;20114;-70
2021/05/18 01:51:32;;;;;;;8.85;5.40;;;;;;;16.81;92.65;99665.09;4931462;29;20038;-71
2021/05/18 01:54:04;;;;;;;13.80;6.45;;;;;;;16.65;93.07;99626.00;4931471;29;20490;-71
2021/05/18 01:56:45;;;;;;;11.90;5.43;;;;;;;16.87;92.66;99644.19;4931267;29;20502;-70
2021/05/18 01:59:13;;;;;;;14.13;6.85;;;;;;;16.94;92.19;99645.97;4931499;29;20039;-70
2021/05/18 02:01:40;;;;;;;17.80;10.60;;;;;;;16.80;92.93;99677.25;4931457;29;20045;-70
2021/05/18 02:04:07;;;;;;;19.02;15.15;;;;;;;16.58;93.86;99667.72;4931075;29;20557;-70
2021/05/18 02:06:34;;;;;;;32.03;25.50;;;;;;;16.52;94.63;99684.22;4931427;29;20139;-69
2021/05/18 02:09:00;;;;;;;37.33;31.42;;;;;;;16.46;94.89;99671.19;4931314;29;20163;-70
2021/05/18 02:11:26;;;;;;;43.47;36.55;;;;;;;16.40;94.74;99665.97;4931280;29;20054;-69
2021/05/18 02:13:54;;;;;;;45.50;38.33;;;;;;;16.14;94.82;99620.81;4931152;29;20036;-70
2021/05/18 02:16:31;;;;;;;42.40;37.90;;;;;;;16.55;94.03;99675.53;4939633;29;20449;-70
2021/05/18 02:26:53;;;;;;;40.47;34.97;;;;;;;16.25;95.05;99691.16;5053561;28;20170;-70
2021/05/18 02:29:18;;;;;;;42.97;34.38;;;;;;;16.24;95.31;99684.19;5054335;28;20059;-70
2021/05/18 02:31:45;;;;;;;32.03;28.02;;;;;;;15.99;95.83;99694.56;5054149;28;20134;-72
2021/05/18 02:37:32;;;;;;;17.77;15.25;;;;;;;15.76;96.50;99691.88;5210984;22;20081;-74
2021/05/18 02:39:58;;;;;;;15.52;13.82;;;;;;;15.73;96.99;99715.28;5054009;28;20024;-70
2021/05/18 02:42:24;;;;;;;17.25;13.23;;;;;;;15.74;98.09;99736.97;5040370;28;20414;-71
2021/05/18 02:45:09;;;;;;;11.68;9.55;;;;;;;15.61;98.41;99743.84;5036142;28;20017;-71
2021/05/18 02:50:18;;;;;;;9.40;6.75;;;;;;;15.31;100.00;99748.03;5053890;28;20079;-74
2021/05/18 02:52:44;;;;;;;7.82;6.00;;;;;;;15.04;100.00;99680.28;5053951;28;20457;-73
2021/05/18 02:55:21;;;;;;;9.07;6.25;;;;;;;15.15;100.00;99656.06;5053902;28;20398;-72
2021/05/18 02:57:48;;;;;;;8.68;5.93;;;;;;;14.86;100.00;99625.59;5052463;28;20029;-70
2021/05/18 03:00:19;;;;;;;8.43;5.38;;;;;;;15.55;100.00;99759.44;5051794;28;20021;-74
2021/05/18 03:02:46;;;;;;;8.23;5.30;;;;;;;15.63;100.00;99756.00;5049893;28;20029;-71
2021/05/18 03:05:11;;;;;;;7.53;5.30;;;;;;;15.48;98.95;99680.50;5053515;28;20451;-70
2021/05/18 03:07:37;;;;;;;9.82;5.32;;;;;;;15.77;99.42;99703.16;5053343;28;20108;-70
2021/05/18 03:10:05;;;;;;;7.05;4.82;;;;;;;15.73;99.55;99697.06;5053173;28;20491;-76
2021/05/18 03:12:30;;;;;;;9.50;4.57;;;;;;;15.76;98.18;99706.63;5053345;28;20033;-74
2021/05/18 03:14:56;;;;;;;6.80;4.57;;;;;;;15.83;98.62;99719.69;5053135;28;20032;-70
2021/05/18 03:17:22;;;;;;;8.07;4.28;;;;;;;15.78;98.60;99767.38;5053238;28;20040;-75
2021/05/18 03:19:47;;;;;;;7.93;3.97;;;;;;;15.77;98.66;99763.00;5053147;28;20056;-72
2021/05/18 03:22:13;;;;;;;9.23;3.60;;;;;;;15.56;97.92;99709.16;5053115;28;20414;-70
2021/05/18 03:24:41;;;;;;;6.03;3.60;;;;;;;15.88;97.82;99743.13;5053282;28;20463;-72
2021/05/18 03:27:08;;;;;;;5.17;3.53;;;;;;;15.64;97.75;99679.69;5035107;28;20033;-75
2021/05/18 03:29:34;;;;;;;6.22;3.83;;;;;;;15.83;98.12;99703.22;5052980;28;20271;-71
2021/05/18 03:35:05;;;;;;;4.97;3.53;;;;;;;16.17;96.40;99732.81;4991178;28;20101;-70
2021/05/18 03:40:11;;;;;;;5.93;3.28;;;;;;;16.39;94.61;99739.81;4991822;28;20055;-74
2021/05/18 03:42:51;;;;;;;11.00;4.00;;;;;;;16.31;94.39;99735.44;5010708;28;20519;-76
2021/05/18 03:45:31;;;;;;;;;;;;;;;16.44;93.88;99751.09;5011071;28;20190;-71
2021/05/18 03:58:53;;;;;;;5.22;3.00;;;;;;;16.53;93.30;99789.31;4990283;28;20138;-72
2021/05/18 04:12:27;;;;;;;7.40;3.45;;;;;;;16.62;92.68;99771.06;5052212;28;20071;-70
2021/05/18 04:17:41;;;;;;;5.80;3.67;;;;;;;16.57;93.07;99765.84;5050757;28;20044;-71
2021/05/18 04:52:34;;;;;;;9.05;7.20;;;;;;;16.01;99.52;99765.75;4913192;29;20036;-72
2021/05/18 05:06:16;;;;;;;8.45;7.55;;;;;;;16.08;99.88;99735.38;4970457;28;20092;-72
2021/05/18 05:14:25;;;;;;;9.25;8.35;;;;;;;16.48;97.44;99791.91;4970251;28;20086;-72
2021/05/18 05:16:52;;;;;;;10.65;8.98;;;;;;;16.52;97.63;99778.00;4970377;28;20030;-74
2021/05/18 05:19:19;;;;;;;9.30;8.40;;;;;;;16.50;95.35;99782.38;5002840;28;20105;-72
2021/05/18 05:21:44;;;;;;;11.20;8.32;;;;;;;16.50;94.59;99787.59;4992485;28;20148;-72
2021/05/18 05:24:11;;;;;;;14.13;9.65;;;;;;;16.55;95.87;99792.78;5009517;28;20472;-72
2021/05/18 05:26:37;;;;;;;11.05;8.13;;;;;;;16.41;95.13;99784.94;5009451;28;20042;-73
2021/05/18 05:29:06;;;;;;;9.15;7.88;;;;;;;16.55;94.51;99806.69;5009543;28;20026;-71
2021/05/18 05:31:33;;;;;;;8.35;6.70;;;;;;;16.04;93.07;99749.28;5009058;28;20034;-70
2021/05/18 05:33:59;;;;;;;7.78;6.82;;;;;;;16.17;92.96;99784.00;5009327;28;20065;-72
2021/05/18 05:36:25;;;;;;;10.85;7.22;;;;;;;16.19;94.77;99792.72;4992331;28;20133;-72
2021/05/18 05:38:50;;;;;;;8.85;7.32;;;;;;;16.24;95.67;99804.00;5009089;28;20591;-71
2021/05/18 05:41:16;;;;;;;8.88;7.40;;;;;;;16.25;95.40;99816.16;5028288;28;20433;-72
2021/05/18 05:43:42;;;;;;;10.63;7.43;;;;;;;16.24;94.24;99817.03;5031018;28;20113;-73
2021/05/18 05:46:08;;;;;;;8.48;7.38;;;;;;;16.28;93.81;99810.09;5030954;28;20104;-72
2021/05/18 05:48:34;;;;;;;8.30;6.47;;;;;;;16.39;94.27;99815.34;5031009;28;20034;-71
2021/05/18 05:51:00;;;;;;;8.40;7.50;;;;;;;16.38;94.74;99805.78;5028611;28;20044;-72
2021/05/18 05:53:26;;;;;;;11.10;7.35;;;;;;;16.40;91.81;99804.03;5029057;28;20037;-72
2021/05/18 05:55:51;;;;;;;8.77;7.88;;;;;;;16.37;93.46;99786.66;5028507;28;20463;-72
2021/05/18 05:58:17;;;;;;;8.90;7.32;;;;;;;16.50;92.22;99795.41;5028513;28;20153;-76
2021/05/18 06:00:42;;;;;;;12.13;9.00;;;;;;;16.59;92.36;99794.53;5015446;28;20484;-76
2021/05/18 06:03:08;;;;;;;7.95;7.18;;;;;;;16.42;90.65;99771.06;5032433;28;20169;-72
2021/05/18 06:05:33;;;;;;;9.65;7.65;;;;;;;16.61;90.99;99800.59;5032101;28;20044;-72
2021/05/18 06:07:59;;;;;;;8.85;7.78;;;;;;;16.66;91.09;99807.56;5032414;28;20029;-71
2021/05/18 06:10:31;;;;;;;8.85;7.38;;;;;;;16.77;89.56;99811.91;5032448;28;20033;-72
2021/05/18 06:13:12;;;;;;;9.35;6.95;;;;;;;16.68;88.81;99814.53;5032247;28;20033;-71
2021/05/18 06:16:10;;;;;;;8.80;7.72;;;;;;;16.74;90.51;99814.53;5032269;28;20033;-72
2021/05/18 06:48:27;;;;;;;5.63;3.35;;;;;;;16.66;82.91;99810.19;4972747;28;20042;-71
2021/05/18 06:50:53;;;;;;;7.40;3.65;;;;;;;16.63;83.04;99811.91;4972460;28;20505;-72
2021/05/18 06:53:18;;;;;;;4.00;3.00;;;;;;;16.46;83.43;99764.97;4972824;28;20035;-72
2021/05/18 06:55:44;;;;;;;6.15;3.05;;;;;;;16.86;81.78;99827.59;4972585;28;20042;-71
2021/05/18 06:58:17;;;;;;;5.55;3.13;;;;;;;16.61;81.09;99804.09;4972380;28;20469;-71
2021/05/18 07:00:43;;;;;;;5.15;3.22;;;;;;;16.68;81.93;99822.34;4972491;28;20053;-71
2021/05/18 07:03:19;;;;;;;5.90;3.45;;;;;;;16.49;82.98;99801.47;4972553;28;20572;-71
2021/05/18 07:05:58;;;;;;;6.75;3.85;;;;;;;15.98;83.54;99712.81;4972416;28;20520;-73
2021/05/18 07:08:54;;;;;;;8.35;2.97;;;;;;;16.56;84.50;99813.66;4990045;28;20463;-69
2021/05/18 07:11:09;;;;;;;5.63;2.78;;;;;;;16.50;83.30;99811.88;5010466;28;20814;-72
2021/05/18 07:13:34;;;;;;;3.75;2.53;;;;;;;16.45;80.63;99816.22;5018532;28;20124;-72
2021/05/18 07:15:59;;;;;;;5.32;3.17;;;;;;;16.45;82.13;99812.75;5033206;28;20030;-71
2021/05/18 07:18:45;;;;;;;6.30;2.78;;;;;;;16.36;82.13;99790.13;5033151;28;20565;-70
2021/05/18 07:21:10;;;;;;;3.05;2.53;;;;;;;16.51;80.99;99812.78;4994546;28;20548;-71
2021/05/18 07:23:36;;;;;;;4.43;2.05;;;;;;;16.49;80.37;99811.88;5011373;28;20112;-71
2021/05/18 07:26:03;;;;;;;3.85;2.10;;;;;;;16.50;80.13;99808.44;5011288;28;20129;-70
2021/05/18 07:28:32;;;;;;;5.00;2.40;;;;;;;16.58;79.58;99817.09;5011158;28;20408;-72
2021/05/18 07:31:03;;;;;;;5.55;2.88;;;;;;;16.59;80.88;99808.44;5010911;28;20050;-75
2021/05/18 07:33:29;;;;;;;5.43;3.20;;;;;;;16.38;81.64;99764.09;5010908;28;20451;-71
2021/05/18 07:35:59;;;;;;;5.93;2.72;;;;;;;16.76;80.95;99831.03;5012874;28;20132;-70
2021/05/18 07:38:25;;;;;;;5.50;3.30;;;;;;;16.84;81.93;99823.25;5030596;28;20040;-71
2021/05/18 07:40:51;;;;;;;5.18;3.00;;;;;;;16.79;80.09;99828.44;5013917;28;20077;-71
2021/05/18 07:43:18;;;;;;;4.65;3.20;;;;;;;16.49;80.61;99770.19;5030558;28;20134;-71
2021/05/18 07:45:49;;;;;;;5.55;3.00;;;;;;;16.90;80.59;99833.69;5030582;28;20034;-72
2021/05/18 08:07:05;;;;;;;7.68;3.45;;;;;;;17.42;80.54;99827.59;5032395;28;20426;-71
2021/05/18 08:09:32;;;;;;;4.88;2.85;;;;;;;17.46;79.52;99814.53;5014773;28;20105;-71
2021/05/18 08:11:57;;;;;;;9.57;3.78;;;;;;;17.75;79.56;99842.31;5032338;28;20029;-71
2021/05/18 08:14:24;;;;;;;7.80;3.25;;;;;;;17.75;77.88;99834.47;5032103;28;20044;-72
2021/05/18 10:38:27;;;;;;;3.25;1.38;;;;;;;21.71;48.99;99847.88;4992359;28;20522;-73
2021/05/18 10:41:08;;;;;;;3.40;1.27;;;;;;;21.41;49.68;99865.00;4992291;28;20058;-75
2021/05/18 10:43:34;;;;;;;20.52;2.72;;;;;;;21.45;47.73;99856.19;4992364;28;20077;-73
2021/05/18 10:46:17;;;;;;;7.47;1.75;;;;;;;21.01;47.00;99851.66;4991383;28;20038;-72
2021/05/18 10:48:43;;;;;;;2.72;1.60;;;;;;;21.03;47.79;99854.25;5036405;28;20479;-72
2021/05/18 10:51:32;;;;;;;2.78;0.88;;;;;;;21.09;46.77;99861.19;5069118;28;20059;-71
2021/05/18 10:54:27;;;;;;;2.03;0.80;;;;;;;20.92;46.78;99854.44;5036438;28;20128;-73
2021/05/18 10:56:53;;;;;;;1.83;1.10;;;;;;;21.21;48.23;99865.34;5053900;28;20025;-70
2021/05/18 10:59:39;;;;;;;4.95;1.20;;;;;;;20.99;46.42;99861.31;5053824;28;20040;-74
2021/05/18 11:02:21;;;;;;;4.68;1.88;;;;;;;21.03;47.29;99861.28;4992118;28;20129;-70
2021/05/18 11:04:50;;;;;;;4.03;1.38;;;;;;;20.95;46.40;99854.38;4992080;28;20043;-71
2021/05/18 11:07:20;;;;;;;3.22;1.20;;;;;;;20.88;46.22;99849.28;4995143;28;20042;-73
2021/05/18 11:09:47;;;;;;;2.88;1.20;;;;;;;20.79;47.39;99850.28;4992340;28;20046;-71
2021/05/18 11:12:13;;;;;;;12.05;3.20;;;;;;;20.64;48.81;99835.59;4991920;28;20030;-71
2021/05/18 11:14:47;;;;;;;4.00;1.30;;;;;;;20.92;50.16;99845.69;4972492;28;20045;-71
2021/05/18 11:17:25;;;;;;;1.77;1.38;;;;;;;21.05;51.36;99844.63;4972501;28;20075;-71
2021/05/18 11:20:26;;;;;;;3.33;1.50;;;;;;;21.24;49.27;99836.44;4972591;28;20488;-73
2021/05/18 11:26:11;;;;;;;5.75;1.30;;;;;;;21.31;45.07;99843.31;4877627;29;20129;-71
2021/05/18 11:28:47;;;;;;;11.38;2.60;;;;;;;21.42;47.00;99845.72;4877126;29;20048;-72
2021/05/18 11:31:19;;;;;;;5.88;1.40;;;;;;;21.32;44.35;99803.91;4877474;29;20069;-69
2021/05/18 11:34:03;;;;;;;4.85;1.60;;;;;;;21.70;46.36;99811.97;4877004;29;20102;-70
2021/05/18 11:36:35;;;;;;;5.90;1.83;;;;;;;22.31;45.99;99856.31;4877016;29;20065;-70
2021/05/18 11:39:15;;;;;;;4.43;1.27;;;;;;;22.20;44.62;99845.16;4893019;29;20044;-70
2021/05/18 11:41:42;;;;;;;3.33;1.58;;;;;;;22.32;43.80;99844.00;4914686;29;20028;-71
2021/05/18 11:44:11;;;;;;;2.75;1.02;;;;;;;22.68;42.50;99850.28;4914603;29;20485;-70
2021/05/18 11:46:49;;;;;;;1.20;0.93;;;;;;;22.93;41.79;99844.44;4931383;29;20040;-69
2021/05/18 11:49:15;;;;;;;1.15;1.05;;;;;;;22.83;40.97;99848.16;4931565;29;20047;-71
2021/05/18 11:51:43;;;;;;;2.17;1.10;;;;;;;22.95;41.92;99847.88;4932525;29;20036;-71
2021/05/18 11:54:09;;;;;;;2.40;1.00;;;;;;;23.04;42.74;99831.88;4932612;29;20135;-72
2021/05/18 11:56:37;;;;;;;2.92;1.25;;;;;;;23.28;42.51;99826.91;4931839;29;20046;-71
2021/05/18 11:59:11;;;;;;;7.50;1.35;;;;;;;23.29;41.75;99833.03;4959942;28;20049;-74
2021/05/18 12:01:48;;;;;;;3.47;0.82;;;;;;;23.26;36.34;99821.69;5052344;28;20025;-70
2021/05/18 12:04:24;;;;;;;3.55;1.00;;;;;;;22.80;36.67;99782.47;5052693;28;20036;-70
2021/05/18 12:06:56;;;;;;;1.92;1.00;;;;;;;23.28;38.93;99816.38;5052693;28;20025;-73
2021/05/18 12:09:22;;;;;;;3.17;1.08;;;;;;;22.76;36.47;99810.63;5052488;28;20063;-69
2021/05/18 12:12:02;;;;;;;3.15;0.90;;;;;;;22.81;36.29;99832.41;5052367;28;20025;-72
2021/05/18 12:14:29;;;;;;;3.60;1.00;;;;;;;22.72;37.83;99812.47;5067795;28;20391;-71
2021/05/18 12:16:56;;;;;;;2.55;0.88;;;;;;;23.33;41.89;99806.59;5068005;28;20505;-70
2021/05/18 12:19:22;;;;;;;3.60;1.00;;;;;;;22.99;38.52;99827.59;5052477;28;20027;-70
2021/05/18 12:21:55;;;;;;;2.10;0.70;;;;;;;23.04;37.30;99826.59;5052327;28;20032;-70
2021/05/18 12:24:26;;;;;;;1.25;0.80;;;;;;;22.63;36.00;99823.22;5052042;28;20100;-72
2021/05/18 12:27:03;;;;;;;2.80;0.80;;;;;;;21.98;38.24;99769.38;5052198;28;20032;-72
2021/05/18 12:29:41;;;;;;;1.60;1.10;;;;;;;22.39;38.72;99827.25;5052511;28;20041;-71
2021/05/18 12:32:28;;;;;;;5.13;1.30;;;;;;;22.51;37.39;99826.97;5052094;28;20116;-71
2021/05/18 12:34:57;;;;;;;1.65;0.50;;;;;;;22.25;36.37;99772.31;5033614;28;20115;-72
2021/05/18 12:37:42;;;;;;;14.35;1.70;;;;;;;22.37;35.87;99831.63;5052084;28;20099;-72
2021/05/18 12:40:28;;;;;;;1.98;0.75;;;;;;;21.77;34.35;99753.16;5051892;28;20032;-69
2021/05/18 12:43:06;;;;;;;9.80;0.90;;;;;;;22.45;36.76;99816.59;5034162;28;20033;-71
2021/05/18 12:45:32;;;;;;;3.03;0.73;;;;;;;22.50;36.73;99754.22;5051783;28;20040;-70
2021/05/18 12:48:00;;;;;;;14.25;1.60;;;;;;;23.02;33.47;99806.50;5052053;28;20029;-71
2021/05/18 12:50:47;;;;;;;2.40;0.60;;;;;;;23.09;33.42;99806.28;5051982;28;20439;-69
2021/05/18 12:53:26;;;;;;;22.20;2.13;;;;;;;23.00;31.85;99810.91;5051989;28;20032;-73
2021/05/18 12:55:52;;;;;;;5.13;0.70;;;;;;;23.19;32.05;99796.44;5051536;28;20124;-70
2021/05/18 12:58:31;;;;;;;2.60;0.63;;;;;;;23.04;31.80;99752.00;5006206;28;20050;-73
2021/05/18 13:01:07;;;;;;;2.22;0.45;;;;;;;23.41;33.86;99793.22;4990044;28;20057;-70
2021/05/18 13:03:33;;;;;;;1.73;0.70;;;;;;;23.35;34.22;99794.25;4990162;28;20471;-72
2021/05/18 13:05:59;;;;;;;3.65;1.10;;;;;;;23.12;34.79;99728.13;4990208;28;20612;-69
2021/05/18 13:08:36;;;;;;;3.67;0.63;;;;;;;23.64;34.99;99797.84;4989754;28;20125;-73
2021/05/18 13:11:11;;;;;;;2.53;0.70;;;;;;;23.56;32.71;99790.16;4973673;28;20126;-71
2021/05/18 13:13:38;;;;;;;3.92;0.60;;;;;;;23.55;34.09;99784.94;4990108;28;20042;-72
2021/05/18 13:16:24;;;;;;;2.42;0.50;;;;;;;23.40;33.34;99752.84;4973710;28;20469;-71
2021/05/18 13:18:56;;;;;;;2.28;0.60;;;;;;;23.76;36.33;99783.47;4990051;28;20057;-72
2021/05/18 13:21:25;;;;;;;2.35;0.90;;;;;;;23.73;34.00;99767.75;4989788;28;20043;-70
2021/05/18 13:26:26;;;;;;;7.85;1.00;;;;;;;23.74;33.90;99765.06;4990086;28;20064;-71
2021/05/18 13:28:59;;;;;;;4.20;0.90;;;;;;;23.86;35.27;99791.97;5010914;28;20068;-73
2021/05/18 13:31:26;;;;;;;2.40;0.90;;;;;;;23.68;34.62;99774.94;5051244;28;20063;-71
2021/05/18 13:33:52;;;;;;;3.72;0.70;;;;;;;23.53;34.73;99805.19;5066892;28;20028;-72
2021/05/18 13:36:18;;;;;;;2.60;0.70;;;;;;;23.64;35.00;99795.22;5051145;28;20403;-73
2021/05/18 13:38:43;;;;;;;6.88;1.02;;;;;;;23.75;35.55;99844.97;5051561;28;20094;-73
2021/05/18 13:41:09;;;;;;;11.77;1.30;;;;;;;22.77;37.06;99855.31;5051114;28;20025;-73
2021/05/18 13:43:35;;;;;;;5.97;0.98;;;;;;;21.81;39.88;99735.59;5051314;28;20060;-73
2021/05/18 13:46:00;;;;;;;10.57;0.93;;;;;;;22.38;39.52;99846.53;5051130;28;20398;-71
2021/05/18 13:48:26;;;;;;;9.82;1.40;;;;;;;21.95;40.03;99861.44;5051578;28;20032;-72
2021/05/18 13:50:52;;;;;;;5.38;1.17;;;;;;;22.03;41.25;99853.38;5033495;28;20032;-73
2021/05/18 13:53:18;;;;;;;4.13;1.20;;;;;;;22.28;41.97;99851.09;5033447;28;20025;-70
2021/05/18 13:55:45;;;;;;;5.07;1.00;;;;;;;22.24;42.21;99844.19;5051204;28;20036;-73
2021/05/18 13:58:10;;;;;;;2.53;0.90;;;;;;;22.06;39.51;99846.31;5050947;28;20048;-73
2021/05/18 14:00:36;;;;;;;4.40;0.80;;;;;;;22.06;40.98;99783.22;5032128;28;20569;-71
2021/05/18 14:03:03;;;;;;;4.03;0.80;;;;;;;22.27;39.59;99838.88;5051742;28;20083;-71
2021/05/18 14:05:29;;;;;;;6.95;1.55;;;;;;;22.17;40.54;99850.47;5051498;28;20044;-72
2021/05/18 14:08:31;;;;;;;8.23;1.40;;;;;;;22.19;41.69;99841.66;5051203;28;20121;-71
2021/05/18 14:11:05;;;;;;;28.35;2.65;;;;;;;22.37;40.35;99847.41;5050919;28;20120;-71
2021/05/18 14:13:33;;;;;;;21.08;2.72;;;;;;;22.52;41.90;99859.38;5051151;28;20021;-72
2021/05/18 14:16:01;;;;;;;16.98;2.10;;;;;;;22.81;41.04;99855.25;5050979;28;20025;-71
2021/05/18 14:18:27;;;;;;;5.95;1.35;;;;;;;22.55;38.75;99812.00;5051195;28;20036;-72
2021/05/18 14:20:53;;;;;;;3.28;0.80;;;;;;;22.81;36.64;99856.09;5052886;28;20029;-73
2021/05/18 14:23:22;;;;;;;4.13;0.82;;;;;;;22.74;37.29;99854.50;5054569;28;20103;-73
2021/05/18 14:25:49;;;;;;;5.00;0.73;;;;;;;22.76;37.94;99864.09;5052540;28;20094;-73
2021/05/18 14:28:14;;;;;;;6.50;1.25;;;;;;;23.08;37.38;99870.38;5054655;28;20159;-72
2021/05/18 14:30:40;;;;;;;3.20;1.02;;;;;;;23.26;37.77;99855.06;5053618;28;20187;-71
2021/05/18 14:33:06;;;;;;;7.68;1.65;;;;;;;23.36;35.82;99864.44;5053949;28;20029;-74
2021/05/18 14:35:32;;;;;;;5.97;1.40;;;;;;;23.27;38.25;99876.06;5053707;28;20040;-74
2021/05/18 14:38:05;;;;;;;3.90;0.88;;;;;;;23.40;37.20;99871.38;5054340;28;20031;-69
2021/05/18 14:56:40;;;;;;;3.13;0.68;;;;;;;23.04;37.83;99805.53;4992408;28;20023;-69
2021/05/18 14:59:06;;;;;;;2.45;0.90;;;;;;;23.42;36.98;99859.00;4975442;28;20031;-71
2021/05/18 15:01:31;;;;;;;2.10;0.75;;;;;;;23.48;36.61;99849.22;4991957;28;20115;-71
2021/05/18 15:03:57;;;;;;;3.17;0.80;;;;;;;23.45;36.17;99859.84;4991291;28;20058;-70
2021/05/18 15:06:23;;;;;;;3.53;1.23;;;;;;;22.98;36.01;99803.06;4992125;28;20093;-68
2021/05/18 15:08:48;;;;;;;3.08;0.80;;;;;;;23.46;35.70;99866.84;4992206;28;20105;-71
2021/05/18 15:11:14;;;;;;;3.67;1.90;;;;;;;23.60;36.86;99875.25;4992115;28;20186;-70
2021/05/18 15:13:39;;;;;;;5.55;2.05;;;;;;;23.54;36.88;99878.03;4992109;28;20050;-68
2021/05/18 15:16:05;;;;;;;2.10;0.70;;;;;;;23.19;35.46;99878.06;4990991;28;20058;-68
2021/05/18 15:18:32;;;;;;;4.45;0.80;;;;;;;22.90;37.10;99871.69;4990492;28;20058;-69
2021/05/18 15:20:58;;;;;;;1.85;0.77;;;;;;;22.58;37.76;99857.50;5054306;28;20431;-68
2021/05/18 15:23:27;;;;;;;0.70;0.70;;;;;;;22.49;38.23;99876.09;5056623;28;20029;-70
2021/05/18 15:25:52;;;;;;;3.65;0.60;;;;;;;22.42;38.58;99875.38;5052213;28;20032;-70
2021/05/18 15:28:18;;;;;;;3.25;0.80;;;;;;;22.16;38.58;99882.91;5052415;28;20494;-71
2021/05/18 15:30:45;;;;;;;2.58;1.00;;;;;;;22.09;38.97;99879.53;5061175;28;20466;-71
2021/05/18 15:33:11;;;;;;;4.03;1.20;;;;;;;22.06;39.52;99879.63;5063139;28;20039;-68
2021/05/18 15:35:37;;;;;;;3.28;0.98;;;;;;;22.13;38.93;99894.34;5060947;28;20025;-69
2021/05/18 15:38:03;;;;;;;1.50;0.70;;;;;;;22.23;38.78;99892.41;5058031;28;20025;-68
2021/05/18 15:40:30;;;;;;;1.65;0.65;;;;;;;22.49;37.05;99894.53;5051606;28;20051;-72
2021/05/18 15:42:55;;;;;;;1.80;0.70;;;;;;;22.37;34.37;99897.38;5052568;28;20075;-72
2021/05/18 15:45:21;;;;;;;5.50;0.80;;;;;;;22.38;34.57;99915.81;5052647;28;20025;-71
2021/05/18 15:47:46;;;;;;;7.15;1.80;;;;;;;22.28;34.87;99912.47;5052207;28;20491;-72
2021/05/18 15:50:15;;;;;;;8.73;1.17;;;;;;;22.18;35.07;99912.66;5058630;28;20025;-68
2021/05/18 15:52:40;;;;;;;2.67;0.60;;;;;;;22.10;35.42;99916.31;5053685;28;20040;-70
2021/05/18 15:55:08;;;;;;;1.08;0.45;;;;;;;22.15;36.24;99918.84;5051670;28;20115;-71
2021/05/18 15:57:33;;;;;;;4.70;0.77;;;;;;;22.07;36.08;99915.50;5052228;28;20036;-70
2021/05/18 15:59:59;;;;;;;1.80;0.65;;;;;;;22.08;36.23;99922.50;5040742;28;20104;-69
2021/05/18 16:02:26;;;;;;;3.22;0.77;;;;;;;21.89;36.30;99937.75;5036220;28;20129;-71
2021/05/18 16:04:51;;;;;;;2.10;0.85;;;;;;;21.82;35.16;99942.28;5031830;28;20472;-70
2021/05/18 16:07:18;;;;;;;3.55;0.50;;;;;;;21.85;36.06;99936.94;5030959;28;20026;-70
2021/05/18 16:09:45;;;;;;;2.40;0.80;;;;;;;21.86;34.98;99949.19;5034733;28;20407;-68
2021/05/18 16:12:11;;;;;;;10.75;1.08;;;;;;;21.95;36.02;99959.53;5033324;28;20030;-73
2021/05/18 16:14:37;;;;;;;1.27;0.30;;;;;;;21.74;33.56;99934.50;5032648;28;20389;-72
2021/05/18 16:17:04;;;;;;;2.47;0.40;;;;;;;21.85;33.82;99943.97;5032168;28;20048;-68
2021/05/18 16:19:30;;;;;;;0.95;0.50;;;;;;;21.75;31.22;99944.13;5032414;28;20462;-71
2021/05/18 16:21:56;;;;;;;7.75;0.98;;;;;;;21.17;30.56;99882.91;5033367;28;20053;-68
2021/05/18 16:24:24;;;;;;;4.43;0.57;;;;;;;21.45;31.46;99942.84;5032845;28;20065;-70
2021/05/18 16:26:50;;;;;;;0.68;0.40;;;;;;;21.24;32.27;99904.69;5032647;28;20368;-70
2021/05/18 16:29:16;;;;;;;1.85;0.60;;;;;;;21.34;32.81;99943.88;5032771;28;20037;-71
2021/05/18 16:31:42;;;;;;;0.50;0.50;;;;;;;21.13;33.13;99917.97;5031317;28;20018;-68
2021/05/18 16:34:08;;;;;;;2.00;0.60;;;;;;;21.24;32.85;99957.19;5031055;28;20079;-70
2021/05/18 16:36:35;;;;;;;1.30;0.40;;;;;;;21.24;33.05;99960.69;5040115;28;20503;-70
2021/05/18 16:39:01;;;;;;;2.95;1.10;;;;;;;21.42;34.37;99959.53;5034087;28;20472;-70
2021/05/18 16:41:26;;;;;;;1.55;0.60;;;;;;;21.21;34.02;99959.84;5033133;28;20071;-71
2021/05/18 16:43:52;;;;;;;5.50;1.05;;;;;;;21.22;34.79;99965.09;5029542;28;20127;-71
2021/05/18 16:46:17;;;;;;;2.63;0.50;;;;;;;21.07;34.39;99941.69;5034038;28;20030;-72
2021/05/18 16:48:43;;;;;;;0.75;0.57;;;;;;;21.16;34.14;99963.41;5034620;28;20163;-72
2021/05/18 16:51:10;;;;;;;3.88;0.50;;;;;;;21.24;35.45;99967.69;5014989;28;20415;-69
2021/05/18 16:53:36;;;;;;;0.73;0.43;;;;;;;21.04;34.35;99960.97;5032285;28;20029;-69
2021/05/18 16:56:04;;;;;;;3.13;0.38;;;;;;;20.90;34.94;99934.03;5031537;28;20159;-71